sensor_id;sensor_type;location;lat;lon;timestamp;P1;durP1;ratioP1;P2;durP2;ratioP2
59587;SDS011;45412;54.472;18.464;2023-07-13T00:00:59;9.20;;;3.10;;
59587;SDS011;45412;54.472;18.464;2023-07-13T00:03:48;7.90;;;3.00;;
59587;SDS011;45412;54.472;18.464;2023-07-13T00:06:35;8.80;;;3.30;;
59587;SDS011;45412;54.472;18.464;2023-07-13T00:09:23;8.30;;;3.00;;
59587;SDS011;45412;54.472;18.464;2023-07-13T00:12:35;8.10;;;3.50;;
59587;SDS011;45412;54.472;18.464;2023-07-13T00:15:25;7.10;;;2.70;;
59587;SDS011;45412;54.472;18.464;2023-07-13T00:18:14;10.40;;;3.10;;
59587;SDS011;45412;54.472;18.464;2023-07-13T00:21:02;9.60;;;3.20;;
59587;SDS011;45412;54.472;18.464;2023-07-13T00:23:53;9.00;;;3.00;;
59587;SDS011;45412;54.472;18.464;2023-07-13T00:26:42;9.00;;;3.00;;
59587;SDS011;45412;54.472;18.464;2023-07-13T00:29:33;8.80;;;3.30;;
59587;SDS011;45412;54.472;18.464;2023-07-13T00:32:21;9.00;;;3.20;;
59587;SDS011;45412;54.472;18.464;2023-07-13T00:35:09;8.50;;;3.60;;
59587;SDS011;45412;54.472;18.464;2023-07-13T00:37:57;8.00;;;3.40;;
59587;SDS011;45412;54.472;18.464;2023-07-13T00:40:45;9.40;;;3.10;;
59587;SDS011;45412;54.472;18.464;2023-07-13T00:43:33;7.60;;;2.90;;
59587;SDS011;45412;54.472;18.464;2023-07-13T00:46:28;10.70;;;3.30;;
59587;SDS011;45412;54.472;18.464;2023-07-13T00:49:20;8.90;;;3.70;;
59587;SDS011;45412;54.472;18.464;2023-07-13T00:52:10;10.90;;;3.40;;
59587;SDS011;45412;54.472;18.464;2023-07-13T00:54:58;9.70;;;3.30;;
59587;SDS011;45412;54.472;18.464;2023-07-13T00:57:47;9.30;;;3.50;;
59587;SDS011;45412;54.472;18.464;2023-07-13T01:00:36;8.90;;;3.20;;
59587;SDS011;45412;54.472;18.464;2023-07-13T01:03:26;10.50;;;4.00;;
59587;SDS011;45412;54.472;18.464;2023-07-13T01:06:15;10.50;;;4.20;;
59587;SDS011;45412;54.472;18.464;2023-07-13T01:09:07;8.80;;;3.00;;
59587;SDS011;45412;54.472;18.464;2023-07-13T01:11:55;9.90;;;3.40;;
59587;SDS011;45412;54.472;18.464;2023-07-13T01:14:44;11.10;;;3.50;;
59587;SDS011;45412;54.472;18.464;2023-07-13T01:17:33;8.40;;;3.30;;
59587;SDS011;45412;54.472;18.464;2023-07-13T01:20:21;9.80;;;3.60;;
59587;SDS011;45412;54.472;18.464;2023-07-13T01:23:10;9.20;;;3.10;;
59587;SDS011;45412;54.472;18.464;2023-07-13T01:26:24;9.40;;;3.40;;
59587;SDS011;45412;54.472;18.464;2023-07-13T01:29:12;10.50;;;3.10;;
59587;SDS011;45412;54.472;18.464;2023-07-13T01:32:00;11.50;;;3.60;;
59587;SDS011;45412;54.472;18.464;2023-07-13T01:34:51;9.70;;;3.20;;
59587;SDS011;45412;54.472;18.464;2023-07-13T01:37:44;11.80;;;3.20;;
59587;SDS011;45412;54.472;18.464;2023-07-13T01:40:32;10.20;;;3.20;;
59587;SDS011;45412;54.472;18.464;2023-07-13T01:43:20;9.40;;;3.50;;
59587;SDS011;45412;54.472;18.464;2023-07-13T01:46:09;11.80;;;3.40;;
59587;SDS011;45412;54.472;18.464;2023-07-13T01:49:10;9.50;;;3.50;;
59587;SDS011;45412;54.472;18.464;2023-07-13T01:51:59;10.70;;;3.20;;
59587;SDS011;45412;54.472;18.464;2023-07-13T01:54:47;9.90;;;3.60;;
59587;SDS011;45412;54.472;18.464;2023-07-13T01:57:37;9.10;;;3.40;;
59587;SDS011;45412;54.472;18.464;2023-07-13T02:00:24;8.90;;;3.50;;
59587;SDS011;45412;54.472;18.464;2023-07-13T02:03:14;12.90;;;3.90;;
59587;SDS011;45412;54.472;18.464;2023-07-13T02:06:05;10.90;;;3.50;;
59587;SDS011;45412;54.472;18.464;2023-07-13T02:08:54;10.70;;;3.90;;
59587;SDS011;45412;54.472;18.464;2023-07-13T02:11:42;11.50;;;3.80;;
59587;SDS011;45412;54.472;18.464;2023-07-13T02:14:30;11.70;;;3.70;;
59587;SDS011;45412;54.472;18.464;2023-07-13T02:17:18;10.90;;;3.90;;
59587;SDS011;45412;54.472;18.464;2023-07-13T02:20:06;11.40;;;3.10;;
59587;SDS011;45412;54.472;18.464;2023-07-13T02:22:55;11.80;;;3.60;;
59587;SDS011;45412;54.472;18.464;2023-07-13T02:25:43;14.60;;;3.60;;
59587;SDS011;45412;54.472;18.464;2023-07-13T02:28:35;9.90;;;4.10;;
59587;SDS011;45412;54.472;18.464;2023-07-13T02:31:23;11.40;;;4.20;;
59587;SDS011;45412;54.472;18.464;2023-07-13T02:34:13;12.50;;;5.20;;
59587;SDS011;45412;54.472;18.464;2023-07-13T02:37:02;11.90;;;5.40;;
59587;SDS011;45412;54.472;18.464;2023-07-13T02:39:50;13.40;;;5.10;;
59587;SDS011;45412;54.472;18.464;2023-07-13T02:42:38;13.70;;;4.70;;
59587;SDS011;45412;54.472;18.464;2023-07-13T02:45:26;10.30;;;4.20;;
59587;SDS011;45412;54.472;18.464;2023-07-13T02:48:14;11.80;;;4.40;;
59587;SDS011;45412;54.472;18.464;2023-07-13T02:51:02;11.50;;;3.80;;
59587;SDS011;45412;54.472;18.464;2023-07-13T02:53:54;11.00;;;3.90;;
59587;SDS011;45412;54.472;18.464;2023-07-13T02:56:44;11.70;;;4.40;;
59587;SDS011;45412;54.472;18.464;2023-07-13T02:59:32;9.50;;;3.50;;
59587;SDS011;45412;54.472;18.464;2023-07-13T03:02:20;12.00;;;3.70;;
59587;SDS011;45412;54.472;18.464;2023-07-13T03:05:09;12.30;;;3.80;;
59587;SDS011;45412;54.472;18.464;2023-07-13T03:08:02;11.70;;;4.10;;
59587;SDS011;45412;54.472;18.464;2023-07-13T03:11:02;11.00;;;3.20;;
59587;SDS011;45412;54.472;18.464;2023-07-13T03:13:54;10.50;;;3.20;;
59587;SDS011;45412;54.472;18.464;2023-07-13T03:16:43;10.40;;;3.10;;
59587;SDS011;45412;54.472;18.464;2023-07-13T03:19:32;9.20;;;2.90;;
59587;SDS011;45412;54.472;18.464;2023-07-13T03:22:21;10.00;;;3.60;;
59587;SDS011;45412;54.472;18.464;2023-07-13T03:25:14;10.30;;;3.40;;
59587;SDS011;45412;54.472;18.464;2023-07-13T03:28:02;10.10;;;3.40;;
59587;SDS011;45412;54.472;18.464;2023-07-13T03:31:04;11.20;;;3.90;;
59587;SDS011;45412;54.472;18.464;2023-07-13T03:34:02;10.60;;;3.20;;
59587;SDS011;45412;54.472;18.464;2023-07-13T03:36:53;9.70;;;3.80;;
59587;SDS011;45412;54.472;18.464;2023-07-13T03:39:43;12.20;;;3.50;;
59587;SDS011;45412;54.472;18.464;2023-07-13T03:42:31;8.70;;;3.20;;
59587;SDS011;45412;54.472;18.464;2023-07-13T03:45:19;10.20;;;3.00;;
59587;SDS011;45412;54.472;18.464;2023-07-13T03:48:08;9.20;;;3.00;;
59587;SDS011;45412;54.472;18.464;2023-07-13T03:50:56;9.90;;;3.20;;
59587;SDS011;45412;54.472;18.464;2023-07-13T03:53:45;11.00;;;3.00;;
59587;SDS011;45412;54.472;18.464;2023-07-13T03:56:35;11.30;;;3.30;;
59587;SDS011;45412;54.472;18.464;2023-07-13T03:59:24;13.60;;;3.40;;
59587;SDS011;45412;54.472;18.464;2023-07-13T04:02:14;12.20;;;3.20;;
59587;SDS011;45412;54.472;18.464;2023-07-13T04:05:06;8.30;;;3.10;;
59587;SDS011;45412;54.472;18.464;2023-07-13T04:07:55;12.30;;;3.10;;
59587;SDS011;45412;54.472;18.464;2023-07-13T04:10:43;9.60;;;3.20;;
59587;SDS011;45412;54.472;18.464;2023-07-13T04:13:33;13.00;;;2.70;;
59587;SDS011;45412;54.472;18.464;2023-07-13T04:16:21;9.40;;;3.10;;
59587;SDS011;45412;54.472;18.464;2023-07-13T04:19:09;11.20;;;2.80;;
59587;SDS011;45412;54.472;18.464;2023-07-13T04:21:57;12.40;;;3.60;;
59587;SDS011;45412;54.472;18.464;2023-07-13T04:24:45;9.00;;;3.00;;
59587;SDS011;45412;54.472;18.464;2023-07-13T04:27:33;9.60;;;2.90;;
59587;SDS011;45412;54.472;18.464;2023-07-13T04:30:24;9.60;;;2.50;;
59587;SDS011;45412;54.472;18.464;2023-07-13T04:33:12;12.70;;;3.00;;
59587;SDS011;45412;54.472;18.464;2023-07-13T04:36:00;9.70;;;2.60;;
59587;SDS011;45412;54.472;18.464;2023-07-13T04:38:49;8.60;;;2.80;;
59587;SDS011;45412;54.472;18.464;2023-07-13T04:41:40;11.50;;;2.90;;
59587;SDS011;45412;54.472;18.464;2023-07-13T04:44:28;11.20;;;2.70;;
59587;SDS011;45412;54.472;18.464;2023-07-13T04:47:18;10.40;;;2.80;;
59587;SDS011;45412;54.472;18.464;2023-07-13T04:50:07;11.10;;;2.90;;
59587;SDS011;45412;54.472;18.464;2023-07-13T04:52:58;10.30;;;2.40;;
59587;SDS011;45412;54.472;18.464;2023-07-13T04:55:53;10.00;;;2.90;;
59587;SDS011;45412;54.472;18.464;2023-07-13T04:58:43;9.10;;;2.40;;
59587;SDS011;45412;54.472;18.464;2023-07-13T05:01:31;7.10;;;2.20;;
59587;SDS011;45412;54.472;18.464;2023-07-13T05:04:19;10.60;;;2.40;;
59587;SDS011;45412;54.472;18.464;2023-07-13T05:07:07;9.40;;;2.10;;
59587;SDS011;45412;54.472;18.464;2023-07-13T05:09:59;8.00;;;2.40;;
59587;SDS011;45412;54.472;18.464;2023-07-13T05:12:51;9.70;;;2.00;;
59587;SDS011;45412;54.472;18.464;2023-07-13T05:15:41;7.60;;;2.00;;
59587;SDS011;45412;54.472;18.464;2023-07-13T05:18:29;9.00;;;2.20;;
59587;SDS011;45412;54.472;18.464;2023-07-13T05:21:18;9.60;;;1.70;;
59587;SDS011;45412;54.472;18.464;2023-07-13T05:24:06;8.00;;;1.90;;
59587;SDS011;45412;54.472;18.464;2023-07-13T05:27:11;7.80;;;1.50;;
59587;SDS011;45412;54.472;18.464;2023-07-13T05:29:59;8.30;;;2.00;;
59587;SDS011;45412;54.472;18.464;2023-07-13T05:32:47;8.00;;;1.80;;
59587;SDS011;45412;54.472;18.464;2023-07-13T05:35:36;8.30;;;1.80;;
59587;SDS011;45412;54.472;18.464;2023-07-13T05:38:26;7.80;;;1.60;;
59587;SDS011;45412;54.472;18.464;2023-07-13T05:41:17;8.20;;;2.00;;
59587;SDS011;45412;54.472;18.464;2023-07-13T05:44:08;10.00;;;1.80;;
59587;SDS011;45412;54.472;18.464;2023-07-13T05:46:57;9.10;;;2.10;;
59587;SDS011;45412;54.472;18.464;2023-07-13T05:49:45;7.60;;;2.00;;
59587;SDS011;45412;54.472;18.464;2023-07-13T05:52:33;7.50;;;1.80;;
59587;SDS011;45412;54.472;18.464;2023-07-13T05:55:21;6.90;;;1.60;;
59587;SDS011;45412;54.472;18.464;2023-07-13T05:58:09;7.30;;;1.80;;
59587;SDS011;45412;54.472;18.464;2023-07-13T06:01:00;8.40;;;1.70;;
59587;SDS011;45412;54.472;18.464;2023-07-13T06:03:53;7.80;;;1.50;;
59587;SDS011;45412;54.472;18.464;2023-07-13T06:06:41;6.40;;;1.60;;
59587;SDS011;45412;54.472;18.464;2023-07-13T06:09:29;7.40;;;1.60;;
59587;SDS011;45412;54.472;18.464;2023-07-13T06:12:17;7.20;;;1.40;;
59587;SDS011;45412;54.472;18.464;2023-07-13T06:15:05;6.40;;;1.30;;
59587;SDS011;45412;54.472;18.464;2023-07-13T06:17:54;7.00;;;1.40;;
59587;SDS011;45412;54.472;18.464;2023-07-13T06:20:42;7.80;;;1.50;;
59587;SDS011;45412;54.472;18.464;2023-07-13T06:23:29;6.60;;;1.40;;
59587;SDS011;45412;54.472;18.464;2023-07-13T06:26:18;7.20;;;1.50;;
59587;SDS011;45412;54.472;18.464;2023-07-13T06:29:08;7.00;;;1.50;;
59587;SDS011;45412;54.472;18.464;2023-07-13T06:31:57;7.60;;;1.30;;
59587;SDS011;45412;54.472;18.464;2023-07-13T06:34:45;6.80;;;1.20;;
59587;SDS011;45412;54.472;18.464;2023-07-13T06:38:21;7.00;;;1.30;;
59587;SDS011;45412;54.472;18.464;2023-07-13T06:41:24;7.80;;;1.20;;
59587;SDS011;45412;54.472;18.464;2023-07-13T06:44:19;6.00;;;1.20;;
59587;SDS011;45412;54.472;18.464;2023-07-13T06:47:09;8.70;;;1.60;;
59587;SDS011;45412;54.472;18.464;2023-07-13T06:50:04;6.30;;;1.20;;
59587;SDS011;45412;54.472;18.464;2023-07-13T06:52:58;7.30;;;1.50;;
59587;SDS011;45412;54.472;18.464;2023-07-13T06:55:50;5.30;;;1.10;;
59587;SDS011;45412;54.472;18.464;2023-07-13T06:58:39;7.20;;;1.60;;
59587;SDS011;45412;54.472;18.464;2023-07-13T07:01:29;6.10;;;1.30;;
59587;SDS011;45412;54.472;18.464;2023-07-13T07:04:17;5.10;;;1.10;;
59587;SDS011;45412;54.472;18.464;2023-07-13T07:07:09;6.20;;;1.50;;
59587;SDS011;45412;54.472;18.464;2023-07-13T07:10:16;6.70;;;1.30;;
59587;SDS011;45412;54.472;18.464;2023-07-13T07:13:06;6.80;;;1.20;;
59587;SDS011;45412;54.472;18.464;2023-07-13T07:15:59;6.90;;;1.20;;
59587;SDS011;45412;54.472;18.464;2023-07-13T07:18:56;5.20;;;1.00;;
59587;SDS011;45412;54.472;18.464;2023-07-13T07:21:45;7.80;;;1.30;;
59587;SDS011;45412;54.472;18.464;2023-07-13T07:24:38;6.60;;;1.30;;
59587;SDS011;45412;54.472;18.464;2023-07-13T07:27:27;7.60;;;1.30;;
59587;SDS011;45412;54.472;18.464;2023-07-13T07:30:22;6.20;;;1.50;;
59587;SDS011;45412;54.472;18.464;2023-07-13T07:33:15;7.60;;;1.60;;
59587;SDS011;45412;54.472;18.464;2023-07-13T07:36:04;6.50;;;1.30;;
59587;SDS011;45412;54.472;18.464;2023-07-13T07:38:55;7.20;;;1.10;;
59587;SDS011;45412;54.472;18.464;2023-07-13T07:41:43;6.10;;;1.10;;
59587;SDS011;45412;54.472;18.464;2023-07-13T07:44:44;6.70;;;1.20;;
59587;SDS011;45412;54.472;18.464;2023-07-13T07:47:35;6.30;;;1.30;;
59587;SDS011;45412;54.472;18.464;2023-07-13T07:50:27;7.10;;;1.40;;
59587;SDS011;45412;54.472;18.464;2023-07-13T07:53:16;6.50;;;1.20;;
59587;SDS011;45412;54.472;18.464;2023-07-13T07:56:04;6.20;;;1.30;;
59587;SDS011;45412;54.472;18.464;2023-07-13T07:59:15;6.20;;;1.10;;
59587;SDS011;45412;54.472;18.464;2023-07-13T08:02:06;9.70;;;1.30;;
59587;SDS011;45412;54.472;18.464;2023-07-13T08:05:16;5.50;;;1.20;;
59587;SDS011;45412;54.472;18.464;2023-07-13T08:08:07;7.60;;;1.30;;
59587;SDS011;45412;54.472;18.464;2023-07-13T08:10:55;7.10;;;1.20;;
59587;SDS011;45412;54.472;18.464;2023-07-13T08:13:50;6.30;;;1.40;;
59587;SDS011;45412;54.472;18.464;2023-07-13T08:16:41;6.00;;;1.30;;
59587;SDS011;45412;54.472;18.464;2023-07-13T08:19:30;5.10;;;1.00;;
59587;SDS011;45412;54.472;18.464;2023-07-13T08:22:18;6.00;;;1.40;;
59587;SDS011;45412;54.472;18.464;2023-07-13T08:25:06;6.80;;;1.70;;
59587;SDS011;45412;54.472;18.464;2023-07-13T08:27:55;6.70;;;1.50;;
59587;SDS011;45412;54.472;18.464;2023-07-13T08:30:45;6.50;;;1.60;;
59587;SDS011;45412;54.472;18.464;2023-07-13T08:33:36;7.60;;;1.70;;
59587;SDS011;45412;54.472;18.464;2023-07-13T08:36:25;6.10;;;1.30;;
59587;SDS011;45412;54.472;18.464;2023-07-13T08:39:15;6.30;;;1.20;;
59587;SDS011;45412;54.472;18.464;2023-07-13T08:48:11;6.70;;;1.30;;
59587;SDS011;45412;54.472;18.464;2023-07-13T08:54:31;6.40;;;1.10;;
59587;SDS011;45412;54.472;18.464;2023-07-13T08:57:31;6.00;;;1.10;;
59587;SDS011;45412;54.472;18.464;2023-07-13T09:00:21;5.50;;;1.20;;
59587;SDS011;45412;54.472;18.464;2023-07-13T09:03:22;7.40;;;1.10;;
59587;SDS011;45412;54.472;18.464;2023-07-13T09:06:12;6.50;;;0.90;;
59587;SDS011;45412;54.472;18.464;2023-07-13T09:09:04;5.00;;;0.90;;
59587;SDS011;45412;54.472;18.464;2023-07-13T09:18:34;6.10;;;1.10;;
59587;SDS011;45412;54.472;18.464;2023-07-13T09:21:31;5.50;;;0.90;;
59587;SDS011;45412;54.472;18.464;2023-07-13T09:24:41;7.30;;;1.10;;
59587;SDS011;45412;54.472;18.464;2023-07-13T09:27:43;5.70;;;1.00;;
59587;SDS011;45412;54.472;18.464;2023-07-13T09:30:37;6.00;;;1.00;;
59587;SDS011;45412;54.472;18.464;2023-07-13T09:33:32;5.60;;;1.00;;
59587;SDS011;45412;54.472;18.464;2023-07-13T09:36:28;5.80;;;1.10;;
59587;SDS011;45412;54.472;18.464;2023-07-13T09:39:25;5.70;;;1.00;;
59587;SDS011;45412;54.472;18.464;2023-07-13T09:42:21;5.70;;;1.10;;
59587;SDS011;45412;54.472;18.464;2023-07-13T09:45:26;5.70;;;1.20;;
59587;SDS011;45412;54.472;18.464;2023-07-13T09:48:17;5.60;;;1.00;;
59587;SDS011;45412;54.472;18.464;2023-07-13T09:51:13;5.00;;;1.10;;
59587;SDS011;45412;54.472;18.464;2023-07-13T09:54:21;8.40;;;1.40;;
59587;SDS011;45412;54.472;18.464;2023-07-13T09:57:15;6.60;;;1.50;;
59587;SDS011;45412;54.472;18.464;2023-07-13T10:00:35;5.50;;;1.30;;
59587;SDS011;45412;54.472;18.464;2023-07-13T10:03:29;5.40;;;1.20;;
59587;SDS011;45412;54.472;18.464;2023-07-13T10:06:26;6.40;;;1.50;;
59587;SDS011;45412;54.472;18.464;2023-07-13T10:09:16;7.50;;;1.70;;
59587;SDS011;45412;54.472;18.464;2023-07-13T10:12:15;6.60;;;1.80;;
59587;SDS011;45412;54.472;18.464;2023-07-13T10:15:21;8.10;;;1.90;;
59587;SDS011;45412;54.472;18.464;2023-07-13T10:18:16;6.10;;;1.80;;
59587;SDS011;45412;54.472;18.464;2023-07-13T10:21:15;6.70;;;1.50;;
59587;SDS011;45412;54.472;18.464;2023-07-13T10:24:23;8.70;;;2.00;;
59587;SDS011;45412;54.472;18.464;2023-07-13T10:27:23;9.30;;;2.00;;
59587;SDS011;45412;54.472;18.464;2023-07-13T10:30:40;9.50;;;2.00;;
59587;SDS011;45412;54.472;18.464;2023-07-13T10:33:47;6.00;;;1.70;;
59587;SDS011;45412;54.472;18.464;2023-07-13T10:36:46;7.40;;;1.90;;
59587;SDS011;45412;54.472;18.464;2023-07-13T10:39:40;7.50;;;1.90;;
59587;SDS011;45412;54.472;18.464;2023-07-13T10:42:41;6.40;;;1.80;;
59587;SDS011;45412;54.472;18.464;2023-07-13T10:45:35;6.60;;;1.90;;
59587;SDS011;45412;54.472;18.464;2023-07-13T10:48:58;7.30;;;1.90;;
59587;SDS011;45412;54.472;18.464;2023-07-13T10:51:53;9.00;;;1.90;;
59587;SDS011;45412;54.472;18.464;2023-07-13T10:54:42;6.20;;;1.80;;
59587;SDS011;45412;54.472;18.464;2023-07-13T10:57:30;6.30;;;1.60;;
59587;SDS011;45412;54.472;18.464;2023-07-13T11:00:31;6.40;;;1.60;;
59587;SDS011;45412;54.472;18.464;2023-07-13T11:03:23;6.10;;;1.60;;
59587;SDS011;45412;54.472;18.464;2023-07-13T11:06:28;6.00;;;1.30;;
59587;SDS011;45412;54.472;18.464;2023-07-13T11:09:40;7.20;;;1.60;;
59587;SDS011;45412;54.472;18.464;2023-07-13T11:15:45;5.50;;;1.30;;
59587;SDS011;45412;54.472;18.464;2023-07-13T11:18:36;5.70;;;1.20;;
59587;SDS011;45412;54.472;18.464;2023-07-13T11:21:28;5.40;;;1.00;;
59587;SDS011;45412;54.472;18.464;2023-07-13T11:24:21;6.10;;;1.20;;
59587;SDS011;45412;54.472;18.464;2023-07-13T11:27:42;8.50;;;1.50;;
59587;SDS011;45412;54.472;18.464;2023-07-13T11:30:37;7.30;;;1.60;;
59587;SDS011;45412;54.472;18.464;2023-07-13T11:36:38;7.20;;;1.60;;
59587;SDS011;45412;54.472;18.464;2023-07-13T11:39:52;6.40;;;1.30;;
59587;SDS011;45412;54.472;18.464;2023-07-13T11:43:06;8.70;;;1.80;;
59587;SDS011;45412;54.472;18.464;2023-07-13T11:46:27;7.70;;;2.20;;
59587;SDS011;45412;54.472;18.464;2023-07-13T11:49:24;7.40;;;1.20;;
59587;SDS011;45412;54.472;18.464;2023-07-13T11:52:19;9.60;;;1.50;;
59587;SDS011;45412;54.472;18.464;2023-07-13T11:55:24;11.40;;;5.10;;
59587;SDS011;45412;54.472;18.464;2023-07-13T11:58:28;8.30;;;2.20;;
59587;SDS011;45412;54.472;18.464;2023-07-13T12:01:32;7.60;;;1.40;;
59587;SDS011;45412;54.472;18.464;2023-07-13T12:04:29;9.10;;;1.60;;
59587;SDS011;45412;54.472;18.464;2023-07-13T12:07:22;6.90;;;1.40;;
59587;SDS011;45412;54.472;18.464;2023-07-13T12:13:12;6.90;;;1.60;;
59587;SDS011;45412;54.472;18.464;2023-07-13T12:16:01;8.10;;;1.60;;
59587;SDS011;45412;54.472;18.464;2023-07-13T12:18:52;8.40;;;1.80;;
59587;SDS011;45412;54.472;18.464;2023-07-13T12:21:48;7.70;;;1.60;;
59587;SDS011;45412;54.472;18.464;2023-07-13T12:24:46;7.60;;;1.60;;
59587;SDS011;45412;54.472;18.464;2023-07-13T12:27:37;6.90;;;1.40;;
59587;SDS011;45412;54.472;18.464;2023-07-13T12:33:19;16.00;;;2.30;;
59587;SDS011;45412;54.472;18.464;2023-07-13T12:36:09;8.50;;;1.80;;
59587;SDS011;45412;54.472;18.464;2023-07-13T12:42:35;8.70;;;1.70;;
59587;SDS011;45412;54.472;18.464;2023-07-13T12:45:28;7.30;;;1.40;;
59587;SDS011;45412;54.472;18.464;2023-07-13T12:48:19;9.10;;;1.40;;
59587;SDS011;45412;54.472;18.464;2023-07-13T12:51:34;8.50;;;1.40;;
59587;SDS011;45412;54.472;18.464;2023-07-13T12:54:29;5.30;;;1.30;;
59587;SDS011;45412;54.472;18.464;2023-07-13T12:57:22;7.80;;;1.40;;
59587;SDS011;45412;54.472;18.464;2023-07-13T13:00:31;6.90;;;1.30;;
59587;SDS011;45412;54.472;18.464;2023-07-13T13:03:38;7.20;;;1.40;;
59587;SDS011;45412;54.472;18.464;2023-07-13T13:06:34;6.40;;;1.30;;
59587;SDS011;45412;54.472;18.464;2023-07-13T13:09:27;6.90;;;1.20;;
59587;SDS011;45412;54.472;18.464;2023-07-13T13:12:20;7.20;;;1.50;;
59587;SDS011;45412;54.472;18.464;2023-07-13T13:15:10;9.60;;;1.50;;
59587;SDS011;45412;54.472;18.464;2023-07-13T13:18:23;7.50;;;1.40;;
59587;SDS011;45412;54.472;18.464;2023-07-13T13:21:18;6.10;;;1.20;;
59587;SDS011;45412;54.472;18.464;2023-07-13T13:24:19;6.20;;;1.30;;
59587;SDS011;45412;54.472;18.464;2023-07-13T13:27:18;6.70;;;1.50;;
59587;SDS011;45412;54.472;18.464;2023-07-13T13:30:17;7.10;;;1.50;;
59587;SDS011;45412;54.472;18.464;2023-07-13T13:33:19;6.30;;;1.40;;
59587;SDS011;45412;54.472;18.464;2023-07-13T13:36:20;8.10;;;1.40;;
59587;SDS011;45412;54.472;18.464;2023-07-13T13:39:34;5.10;;;1.20;;
59587;SDS011;45412;54.472;18.464;2023-07-13T13:42:25;7.80;;;1.60;;
59587;SDS011;45412;54.472;18.464;2023-07-13T13:45:15;5.80;;;1.50;;
59587;SDS011;45412;54.472;18.464;2023-07-13T13:48:16;8.40;;;1.50;;
59587;SDS011;45412;54.472;18.464;2023-07-13T13:51:21;6.90;;;1.30;;
59587;SDS011;45412;54.472;18.464;2023-07-13T13:54:14;8.30;;;1.40;;
59587;SDS011;45412;54.472;18.464;2023-07-13T13:57:05;7.30;;;1.60;;
59587;SDS011;45412;54.472;18.464;2023-07-13T13:59:57;7.00;;;1.50;;
59587;SDS011;45412;54.472;18.464;2023-07-13T14:02:47;6.00;;;1.40;;
59587;SDS011;45412;54.472;18.464;2023-07-13T14:05:40;6.90;;;1.40;;
59587;SDS011;45412;54.472;18.464;2023-07-13T14:08:34;7.80;;;1.40;;
59587;SDS011;45412;54.472;18.464;2023-07-13T14:11:23;7.00;;;1.50;;
59587;SDS011;45412;54.472;18.464;2023-07-13T14:14:16;6.60;;;1.20;;
59587;SDS011;45412;54.472;18.464;2023-07-13T14:17:22;9.50;;;1.50;;
59587;SDS011;45412;54.472;18.464;2023-07-13T14:20:16;6.90;;;1.40;;
59587;SDS011;45412;54.472;18.464;2023-07-13T14:23:13;8.50;;;1.50;;
59587;SDS011;45412;54.472;18.464;2023-07-13T14:26:11;7.10;;;1.70;;
59587;SDS011;45412;54.472;18.464;2023-07-13T14:29:14;6.90;;;1.70;;
59587;SDS011;45412;54.472;18.464;2023-07-13T14:32:11;7.00;;;1.50;;
59587;SDS011;45412;54.472;18.464;2023-07-13T14:35:02;7.30;;;1.50;;
59587;SDS011;45412;54.472;18.464;2023-07-13T14:37:52;6.80;;;1.40;;
59587;SDS011;45412;54.472;18.464;2023-07-13T14:40:42;7.70;;;1.50;;
59587;SDS011;45412;54.472;18.464;2023-07-13T14:43:32;6.10;;;1.60;;
59587;SDS011;45412;54.472;18.464;2023-07-13T14:46:33;9.40;;;1.60;;
59587;SDS011;45412;54.472;18.464;2023-07-13T14:49:32;6.10;;;1.30;;
59587;SDS011;45412;54.472;18.464;2023-07-13T14:52:24;6.00;;;1.40;;
59587;SDS011;45412;54.472;18.464;2023-07-13T14:55:18;12.00;;;1.70;;
59587;SDS011;45412;54.472;18.464;2023-07-13T14:58:16;11.20;;;1.70;;
59587;SDS011;45412;54.472;18.464;2023-07-13T15:01:09;9.20;;;1.90;;
59587;SDS011;45412;54.472;18.464;2023-07-13T15:04:03;8.30;;;1.90;;
59587;SDS011;45412;54.472;18.464;2023-07-13T15:06:54;9.10;;;1.70;;
59587;SDS011;45412;54.472;18.464;2023-07-13T15:09:49;6.50;;;1.50;;
59587;SDS011;45412;54.472;18.464;2023-07-13T15:12:41;5.80;;;1.40;;
59587;SDS011;45412;54.472;18.464;2023-07-13T15:15:36;6.80;;;1.40;;
59587;SDS011;45412;54.472;18.464;2023-07-13T15:18:26;7.50;;;1.50;;
59587;SDS011;45412;54.472;18.464;2023-07-13T15:21:22;7.30;;;1.90;;
59587;SDS011;45412;54.472;18.464;2023-07-13T15:24:12;5.60;;;1.30;;
59587;SDS011;45412;54.472;18.464;2023-07-13T15:27:00;6.00;;;1.10;;
59587;SDS011;45412;54.472;18.464;2023-07-13T15:29:48;6.50;;;1.40;;
59587;SDS011;45412;54.472;18.464;2023-07-13T15:32:36;6.80;;;1.10;;
59587;SDS011;45412;54.472;18.464;2023-07-13T15:35:26;5.90;;;1.30;;
59587;SDS011;45412;54.472;18.464;2023-07-13T15:38:27;7.70;;;1.60;;
59587;SDS011;45412;54.472;18.464;2023-07-13T15:41:18;6.90;;;1.50;;
59587;SDS011;45412;54.472;18.464;2023-07-13T15:47:15;9.10;;;3.10;;
59587;SDS011;45412;54.472;18.464;2023-07-13T15:50:04;7.70;;;2.10;;
59587;SDS011;45412;54.472;18.464;2023-07-13T15:52:54;7.20;;;1.50;;
59587;SDS011;45412;54.472;18.464;2023-07-13T15:55:50;6.30;;;1.40;;
59587;SDS011;45412;54.472;18.464;2023-07-13T15:58:39;6.20;;;1.40;;
59587;SDS011;45412;54.472;18.464;2023-07-13T16:01:29;6.40;;;1.30;;
59587;SDS011;45412;54.472;18.464;2023-07-13T16:04:20;6.10;;;1.40;;
59587;SDS011;45412;54.472;18.464;2023-07-13T16:07:12;7.70;;;1.40;;
59587;SDS011;45412;54.472;18.464;2023-07-13T16:10:25;6.70;;;1.50;;
59587;SDS011;45412;54.472;18.464;2023-07-13T16:13:26;6.90;;;1.40;;
59587;SDS011;45412;54.472;18.464;2023-07-13T16:16:16;7.40;;;1.30;;
59587;SDS011;45412;54.472;18.464;2023-07-13T16:19:04;6.40;;;1.40;;
59587;SDS011;45412;54.472;18.464;2023-07-13T16:21:59;5.30;;;1.50;;
59587;SDS011;45412;54.472;18.464;2023-07-13T16:24:57;6.90;;;1.50;;
59587;SDS011;45412;54.472;18.464;2023-07-13T16:27:52;9.20;;;1.90;;
59587;SDS011;45412;54.472;18.464;2023-07-13T16:30:48;6.60;;;1.40;;
59587;SDS011;45412;54.472;18.464;2023-07-13T16:33:36;6.50;;;1.40;;
59587;SDS011;45412;54.472;18.464;2023-07-13T16:36:38;7.10;;;1.50;;
59587;SDS011;45412;54.472;18.464;2023-07-13T16:39:36;5.80;;;1.20;;
59587;SDS011;45412;54.472;18.464;2023-07-13T16:42:24;8.90;;;1.60;;
59587;SDS011;45412;54.472;18.464;2023-07-13T16:45:14;6.40;;;1.40;;
59587;SDS011;45412;54.472;18.464;2023-07-13T16:48:15;5.10;;;1.30;;
59587;SDS011;45412;54.472;18.464;2023-07-13T16:51:09;5.10;;;1.20;;
59587;SDS011;45412;54.472;18.464;2023-07-13T16:54:01;5.70;;;1.10;;
59587;SDS011;45412;54.472;18.464;2023-07-13T16:56:52;6.60;;;1.20;;
59587;SDS011;45412;54.472;18.464;2023-07-13T16:59:40;5.10;;;1.20;;
59587;SDS011;45412;54.472;18.464;2023-07-13T17:02:37;5.00;;;1.30;;
59587;SDS011;45412;54.472;18.464;2023-07-13T17:05:39;5.70;;;1.30;;
59587;SDS011;45412;54.472;18.464;2023-07-13T17:08:30;7.60;;;1.30;;
59587;SDS011;45412;54.472;18.464;2023-07-13T17:11:21;6.10;;;1.40;;
59587;SDS011;45412;54.472;18.464;2023-07-13T17:14:18;5.40;;;1.60;;
59587;SDS011;45412;54.472;18.464;2023-07-13T17:17:16;6.10;;;1.40;;
59587;SDS011;45412;54.472;18.464;2023-07-13T17:20:23;6.90;;;1.30;;
59587;SDS011;45412;54.472;18.464;2023-07-13T17:23:25;6.10;;;1.40;;
59587;SDS011;45412;54.472;18.464;2023-07-13T17:26:14;6.80;;;1.40;;
59587;SDS011;45412;54.472;18.464;2023-07-13T17:29:05;10.50;;;1.50;;
59587;SDS011;45412;54.472;18.464;2023-07-13T17:31:57;8.50;;;1.50;;
59587;SDS011;45412;54.472;18.464;2023-07-13T17:34:46;8.10;;;1.70;;
59587;SDS011;45412;54.472;18.464;2023-07-13T17:37:34;5.50;;;1.30;;
59587;SDS011;45412;54.472;18.464;2023-07-13T17:40:25;9.70;;;4.40;;